Terminal Aerodrome Forecast
Issued by NWS Duluth, MN

Home | Current Version | Previous Version | Text Only | Print | Product List | Glossary On
Versions: 1 2 3 4 5 6 7 8 9 10 11 12 13 14 15 16 17 18 19 20 21 22 23 24 25 26 27 28 29 30 31 32 33
000
FTUS43 KDLH 222000 AAA
TAFDLH
TAF AMD
KDLH 222031Z 2221/2318 16013KT P6SM BKN050 BKN080
      TEMPO 2221/2222 BKN035
     FM222300 15010KT P6SM SCT050 WS020/18035KT
     FM230300 17006KT P6SM VCSH SCT080 BKN120 WS020/18035KT
     FM230700 18004KT 6SM -RA BR SCT010 OVC035
     FM231500 22008KT P6SM SCT035 BKN120=

USA.gov is the U.S. government's official web portal to all federal, state and local government web resources and services.